createdAt,value
2023-04-07T00:02:02.349Z,5.40
2023-04-07T00:04:31.789Z,5.35
2023-04-07T00:07:01.386Z,5.85
2023-04-07T00:09:30.851Z,5.45
2023-04-07T00:12:01.886Z,5.20
2023-04-07T00:14:32.740Z,6.28
2023-04-07T00:17:02.205Z,4.78
2023-04-07T00:19:31.661Z,7.20
2023-04-07T00:22:00.529Z,5.50
2023-04-07T00:24:34.290Z,6.00
2023-04-07T00:27:04.176Z,6.68
2023-04-07T00:29:34.724Z,6.78
2023-04-07T00:32:04.111Z,7.00
2023-04-07T00:34:33.399Z,7.85
2023-04-07T00:37:02.697Z,7.18
2023-04-07T00:39:32.021Z,7.00
2023-04-07T00:42:01.193Z,6.55
2023-04-07T00:44:30.824Z,6.40
2023-04-07T00:47:01.471Z,7.05
2023-04-07T00:49:31.887Z,6.57
2023-04-07T00:52:01.219Z,6.70
2023-04-07T00:54:31.602Z,6.07
2023-04-07T00:57:01.849Z,5.30
2023-04-07T00:59:32.784Z,7.63
2023-04-07T01:02:12.024Z,5.40
2023-04-07T01:04:47.278Z,4.53
2023-04-07T01:07:23.538Z,5.50
2023-04-07T01:10:08.222Z,3.95
2023-04-07T01:12:55.878Z,4.97
2023-04-07T01:15:31.435Z,4.43
2023-04-07T01:18:11.479Z,4.88
2023-04-07T01:20:44.518Z,5.30
2023-04-07T01:23:24.905Z,5.22
2023-04-07T01:26:12.456Z,4.63
2023-04-07T01:29:15.608Z,4.55
2023-04-07T01:31:48.221Z,5.00
2023-04-07T01:34:22.044Z,3.95
2023-04-07T01:36:52.763Z,3.95
2023-04-07T01:39:23.776Z,4.68
2023-04-07T01:41:54.653Z,5.47
2023-04-07T01:44:24.821Z,5.38
2023-04-07T01:46:57.075Z,3.63
2023-04-07T01:49:30.320Z,3.55
2023-04-07T01:52:00.720Z,4.15
2023-04-07T01:54:31.665Z,3.80
2023-04-07T01:57:01.739Z,4.10
2023-04-07T01:59:31.823Z,5.13
2023-04-07T02:02:04.604Z,3.78
2023-04-07T02:04:39.344Z,6.30
2023-04-07T02:07:12.952Z,5.20
2023-04-07T02:09:48.631Z,4.68
2023-04-07T02:12:18.850Z,4.72
2023-04-07T02:15:02.742Z,4.03
2023-04-07T02:17:35.152Z,4.32
2023-04-07T02:20:08.158Z,5.07
2023-04-07T02:22:41.118Z,4.30
2023-04-07T02:25:23.060Z,5.43
2023-04-07T02:27:52.347Z,8.38
2023-04-07T02:30:22.006Z,7.32
2023-04-07T02:32:52.839Z,4.32
2023-04-07T02:35:22.962Z,5.30
2023-04-07T02:37:52.390Z,4.50
2023-04-07T02:40:21.602Z,4.82
2023-04-07T02:42:50.776Z,4.50
2023-04-07T02:45:23.032Z,5.80
2023-04-07T02:47:56.268Z,5.45
2023-04-07T02:50:26.251Z,4.53
2023-04-07T02:52:55.335Z,5.97
2023-04-07T02:55:26.877Z,3.60
2023-04-07T02:57:56.107Z,4.88
2023-04-07T03:00:45.769Z,4.88
2023-04-07T03:03:23.374Z,5.32
2023-04-07T03:06:16.626Z,4.72
2023-04-07T03:09:12.123Z,4.72
2023-04-07T03:11:43.257Z,4.90
2023-04-07T03:14:12.783Z,5.22
2023-04-07T03:16:47.722Z,5.90
2023-04-07T03:19:19.337Z,4.90
2023-04-07T03:21:51.615Z,5.75
2023-04-07T03:24:21.047Z,5.35
2023-04-07T03:26:52.839Z,6.78
2023-04-07T03:29:39.091Z,6.97
2023-04-07T03:32:11.212Z,6.07
2023-04-07T03:34:44.364Z,7.15
2023-04-07T03:39:44.957Z,6.90
2023-04-07T03:42:28.008Z,7.70
2023-04-07T03:45:03.157Z,7.63
2023-04-07T03:47:34.437Z,6.88
2023-04-07T03:50:08.254Z,7.28
2023-04-07T03:52:45.565Z,7.50
2023-04-07T03:55:24.567Z,6.30
2023-04-07T03:57:58.567Z,7.43
2023-04-07T04:00:33.410Z,6.30
2023-04-07T04:03:10.227Z,6.95
2023-04-07T04:05:47.751Z,6.55
2023-04-07T04:08:22.759Z,5.40
2023-04-07T04:10:52.219Z,5.13
2023-04-07T04:13:21.661Z,5.45
2023-04-07T04:15:51.677Z,5.50
2023-04-07T04:18:23.864Z,6.60
2023-04-07T04:20:56.322Z,5.13
2023-04-07T04:23:25.871Z,3.33
2023-04-07T04:25:56.965Z,3.63
2023-04-07T04:28:25.822Z,4.03
2023-04-07T04:30:57.613Z,3.78
2023-04-07T04:33:26.586Z,4.28
2023-04-07T04:35:59.794Z,3.63
2023-04-07T04:38:29.454Z,3.95
2023-04-07T04:41:20.027Z,3.20
2023-04-07T04:43:51.827Z,3.90
2023-04-07T04:46:24.504Z,3.50
2023-04-07T04:48:54.233Z,3.15
2023-04-07T04:51:26.510Z,3.55
2023-04-07T04:54:03.850Z,5.25
2023-04-07T04:56:32.925Z,3.88
2023-04-07T04:59:01.677Z,3.28
2023-04-07T05:01:44.026Z,4.07
2023-04-07T05:04:18.067Z,3.58
2023-04-07T05:06:55.442Z,3.95
2023-04-07T05:09:28.552Z,4.47
2023-04-07T05:11:57.960Z,3.95
2023-04-07T05:14:30.252Z,6.60
2023-04-07T05:17:06.507Z,4.13
2023-04-07T05:19:35.543Z,4.93
2023-04-07T05:22:13.395Z,5.10
2023-04-07T05:24:47.258Z,6.40
2023-04-07T05:27:16.154Z,5.00
2023-04-07T05:29:49.304Z,4.53
2023-04-07T05:32:27.558Z,4.18
2023-04-07T05:34:56.980Z,3.67
2023-04-07T05:37:33.900Z,5.60
2023-04-07T05:40:06.925Z,6.35
2023-04-07T05:42:35.735Z,3.92
2023-04-07T05:45:08.391Z,4.32
2023-04-07T05:47:41.040Z,5.63
2023-04-07T05:50:14.150Z,5.35
2023-04-07T05:55:23.448Z,5.03
2023-04-07T05:57:53.734Z,4.93
2023-04-07T06:00:24.702Z,4.03
2023-04-07T06:03:04.074Z,3.45
2023-04-07T06:05:43.525Z,3.95
2023-04-07T06:08:15.224Z,3.90
2023-04-07T06:10:44.373Z,4.07
2023-04-07T06:13:14.050Z,4.20
2023-04-07T06:15:44.631Z,3.42
2023-04-07T06:18:13.544Z,3.30
2023-04-07T06:20:42.674Z,2.90
2023-04-07T06:23:13.204Z,3.20
2023-04-07T06:25:43.872Z,4.28
2023-04-07T06:28:15.358Z,4.05
2023-04-07T06:30:44.413Z,2.95
2023-04-07T06:33:15.534Z,3.75
2023-04-07T06:35:44.379Z,3.63
2023-04-07T06:38:13.193Z,5.43
2023-04-07T06:40:43.393Z,2.67
2023-04-07T06:43:12.136Z,4.07
2023-04-07T06:45:45.653Z,2.67
2023-04-07T06:48:17.256Z,2.85
2023-04-07T06:50:47.676Z,4.20
2023-04-07T06:53:16.396Z,3.85
2023-04-07T06:55:48.816Z,3.00
2023-04-07T06:58:20.073Z,2.78
2023-04-07T07:00:48.868Z,3.75
2023-04-07T07:03:18.129Z,3.35
2023-04-07T07:05:48.495Z,2.33
2023-04-07T07:08:18.869Z,2.95
2023-04-07T07:10:49.036Z,2.58
2023-04-07T07:13:17.903Z,2.70
2023-04-07T07:15:50.463Z,3.03
2023-04-07T07:18:19.383Z,1.75
2023-04-07T07:20:48.365Z,3.25
2023-04-07T07:23:17.126Z,2.38
2023-04-07T07:25:46.306Z,2.58
2023-04-07T07:28:16.723Z,2.15
2023-04-07T07:30:45.718Z,2.00
2023-04-07T07:33:16.950Z,2.65
2023-04-07T07:35:45.802Z,2.45
2023-04-07T07:38:14.645Z,1.90
2023-04-07T07:40:43.324Z,2.13
2023-04-07T07:43:13.223Z,3.85
2023-04-07T07:45:43.448Z,3.03
2023-04-07T07:48:12.174Z,3.65
2023-04-07T07:50:44.757Z,3.15
2023-04-07T07:53:13.758Z,2.78
2023-04-07T07:55:42.622Z,3.58
2023-04-07T07:58:11.398Z,2.95
2023-04-07T08:00:40.175Z,3.50
2023-04-07T08:03:10.453Z,3.08
2023-04-07T08:05:39.509Z,3.90
2023-04-07T08:08:08.662Z,2.75
2023-04-07T08:10:37.468Z,3.08
2023-04-07T08:13:06.322Z,4.30
2023-04-07T08:15:35.134Z,3.20
2023-04-07T08:18:06.500Z,2.53
2023-04-07T08:20:36.971Z,3.75
2023-04-07T08:23:05.960Z,2.85
2023-04-07T08:25:36.254Z,2.83
2023-04-07T08:28:05.336Z,4.13
2023-04-07T08:30:34.131Z,3.67
2023-04-07T08:33:02.939Z,2.78
2023-04-07T08:35:35.211Z,3.38
2023-04-07T08:38:07.102Z,4.32
2023-04-07T08:40:35.993Z,3.35
2023-04-07T08:43:10.675Z,3.67
2023-04-07T08:45:42.221Z,2.67
2023-04-07T08:48:17.737Z,3.22
2023-04-07T08:50:47.317Z,2.97
2023-04-07T08:53:28.325Z,2.63
2023-04-07T08:55:57.632Z,3.67
2023-04-07T08:58:27.001Z,3.67
2023-04-07T09:00:56.907Z,2.67
2023-04-07T09:03:27.558Z,3.55
2023-04-07T09:05:57.335Z,4.82
2023-04-07T09:08:30.648Z,2.90
2023-04-07T09:10:59.733Z,5.07
2023-04-07T09:13:28.539Z,2.42
2023-04-07T09:15:57.360Z,2.90
2023-04-07T09:18:26.223Z,3.42
2023-04-07T09:21:02.487Z,3.50
2023-04-07T09:23:34.941Z,2.90
2023-04-07T09:26:22.139Z,2.40
2023-04-07T09:28:53.716Z,3.00
2023-04-07T09:31:23.119Z,2.67
2023-04-07T09:33:51.952Z,2.90
2023-04-07T09:36:20.761Z,3.30
2023-04-07T09:38:50.897Z,3.20
2023-04-07T09:41:22.401Z,4.13
2023-04-07T09:43:58.220Z,3.97
2023-04-07T09:46:28.312Z,5.28
2023-04-07T09:49:05.140Z,3.70
2023-04-07T09:51:34.592Z,3.08
2023-04-07T09:54:04.800Z,3.63
2023-04-07T09:56:33.779Z,3.35
2023-04-07T09:59:03.168Z,4.75
2023-04-07T10:01:31.981Z,3.35
2023-04-07T10:04:04.221Z,3.95
2023-04-07T10:06:33.100Z,3.53
2023-04-07T10:09:04.807Z,2.75
2023-04-07T10:11:34.427Z,5.53
2023-04-07T10:14:03.233Z,4.20
2023-04-07T10:16:35.087Z,3.58
2023-04-07T10:19:08.018Z,3.85
2023-04-07T10:21:42.295Z,4.03
2023-04-07T10:24:25.528Z,4.07
2023-04-07T10:26:59.278Z,4.05
2023-04-07T10:29:31.230Z,3.40
2023-04-07T10:32:03.373Z,3.97
2023-04-07T10:34:58.248Z,3.83
2023-04-07T10:37:28.015Z,3.65
2023-04-07T10:40:31.482Z,3.75
2023-04-07T10:43:01.234Z,4.03
2023-04-07T10:46:00.530Z,3.08
2023-04-07T10:48:34.295Z,3.17
2023-04-07T10:51:19.121Z,3.15
2023-04-07T10:54:22.963Z,4.38
2023-04-07T11:00:16.221Z,4.45
2023-04-07T11:02:47.902Z,6.88
2023-04-07T11:05:24.031Z,4.45
2023-04-07T11:07:57.721Z,6.20
2023-04-07T11:10:26.774Z,6.45
2023-04-07T11:13:05.251Z,3.03
2023-04-07T11:15:35.772Z,4.20
2023-04-07T11:18:13.153Z,4.00
2023-04-07T11:20:46.990Z,7.22
2023-04-07T11:23:16.503Z,5.70
2023-04-07T11:25:46.852Z,5.50
2023-04-07T11:28:17.517Z,4.93
2023-04-07T11:33:24.599Z,6.78
2023-04-07T11:35:56.900Z,7.38
2023-04-07T11:38:27.340Z,4.88
2023-04-07T11:40:57.359Z,4.70
2023-04-07T11:43:29.658Z,7.68
2023-04-07T11:46:09.396Z,6.32
2023-04-07T11:48:41.153Z,4.28
2023-04-07T11:51:17.914Z,8.63
2023-04-07T11:53:48.336Z,3.90
2023-04-07T11:56:18.881Z,5.15
2023-04-07T11:58:52.918Z,6.95
2023-04-07T12:01:24.484Z,11.15
2023-04-07T12:03:59.638Z,12.52
2023-04-07T12:06:30.898Z,13.77
2023-04-07T12:09:00.651Z,6.07
2023-04-07T12:11:30.135Z,5.00
2023-04-07T12:14:00.477Z,4.97
2023-04-07T12:16:29.433Z,5.72
2023-04-07T12:18:58.651Z,5.90
2023-04-07T12:21:27.693Z,5.63
2023-04-07T12:23:56.400Z,5.03
2023-04-07T12:26:25.653Z,4.60
2023-04-07T12:28:55.161Z,6.28
2023-04-07T12:31:25.584Z,3.50
2023-04-07T12:33:54.443Z,4.95
2023-04-07T12:36:26.086Z,3.55
2023-04-07T12:38:58.983Z,5.20
2023-04-07T12:41:27.953Z,3.30
2023-04-07T12:43:57.073Z,6.10
2023-04-07T12:46:27.295Z,5.03
2023-04-07T12:48:56.216Z,3.70
2023-04-07T12:51:25.378Z,4.65
2023-04-07T12:53:54.790Z,3.97
2023-04-07T12:56:24.263Z,3.58
2023-04-07T12:58:53.455Z,4.18
2023-04-07T13:01:22.547Z,3.33
2023-04-07T13:03:55.028Z,4.43
2023-04-07T13:06:24.519Z,5.00
2023-04-07T13:08:53.258Z,4.50
2023-04-07T13:11:22.052Z,4.07
2023-04-07T13:13:51.048Z,2.97
2023-04-07T13:16:20.056Z,3.85
2023-04-07T13:18:48.864Z,4.13
2023-04-07T13:21:43.926Z,4.70
2023-04-07T13:24:07.937Z,4.50
2023-04-07T13:26:37.476Z,4.43
2023-04-07T13:29:06.466Z,4.95
2023-04-07T13:31:35.336Z,4.50
2023-04-07T13:34:04.299Z,4.72
2023-04-07T13:36:34.408Z,3.85
2023-04-07T13:39:07.779Z,4.63
2023-04-07T13:41:38.906Z,4.15
2023-04-07T13:44:07.994Z,5.93
2023-04-07T13:46:37.414Z,4.15
2023-04-07T13:49:06.361Z,5.40
2023-04-07T13:51:36.532Z,5.85
2023-04-07T13:54:05.392Z,3.85
2023-04-07T13:56:35.626Z,4.82
2023-04-07T13:59:04.454Z,6.05
2023-04-07T14:01:34.011Z,3.88
2023-04-07T14:04:03.494Z,3.83
2023-04-07T14:06:32.562Z,5.65
2023-04-07T14:09:06.448Z,3.63
2023-04-07T14:11:36.163Z,4.20
2023-04-07T14:14:04.940Z,4.70
2023-04-07T14:16:34.069Z,5.18
2023-04-07T14:19:03.452Z,4.68
2023-04-07T14:21:32.192Z,3.58
2023-04-07T14:24:01.474Z,4.75
2023-04-07T14:26:31.549Z,4.47
2023-04-07T14:29:02.976Z,5.07
2023-04-07T14:31:32.088Z,4.53
2023-04-07T14:34:00.937Z,3.75
2023-04-07T14:36:29.679Z,5.32
2023-04-07T14:38:58.876Z,4.40
2023-04-07T14:41:27.818Z,6.38
2023-04-07T14:43:58.388Z,5.57
2023-04-07T14:46:27.864Z,6.85
2023-04-07T14:48:57.533Z,4.63
2023-04-07T14:51:26.381Z,4.20
2023-04-07T14:53:57.835Z,4.45
2023-04-07T14:56:26.677Z,5.15
2023-04-07T14:58:55.459Z,3.72
2023-04-07T15:01:28.071Z,4.35
2023-04-07T15:03:58.627Z,6.38
2023-04-07T15:06:31.955Z,4.55
2023-04-07T15:09:03.004Z,4.38
2023-04-07T15:11:31.770Z,3.08
2023-04-07T15:14:03.531Z,4.82
2023-04-07T15:16:37.082Z,3.70
2023-04-07T15:19:05.959Z,4.75
2023-04-07T15:21:34.789Z,4.05
2023-04-07T15:24:03.618Z,3.70
2023-04-07T15:26:32.396Z,4.50
2023-04-07T15:29:02.257Z,4.35
2023-04-07T15:31:31.242Z,5.22
2023-04-07T15:34:01.329Z,5.10
2023-04-07T15:36:30.092Z,5.03
2023-04-07T15:38:58.942Z,6.93
2023-04-07T15:41:27.720Z,5.88
2023-04-07T15:43:56.540Z,4.65
2023-04-07T15:46:25.461Z,4.70
2023-04-07T15:48:54.451Z,5.15
2023-04-07T15:51:24.705Z,5.35
2023-04-07T15:53:55.894Z,5.50
2023-04-07T15:56:25.062Z,7.40
2023-04-07T15:58:53.901Z,4.35
2023-04-07T16:01:26.013Z,4.22
2023-04-07T16:03:56.987Z,5.32
2023-04-07T16:06:27.479Z,5.80
2023-04-07T16:08:56.925Z,5.38
2023-04-07T16:11:25.872Z,7.20
2023-04-07T16:13:54.779Z,7.50
2023-04-07T16:16:23.846Z,7.32
2023-04-07T16:18:53.104Z,4.95
2023-04-07T16:21:21.901Z,6.25
2023-04-07T16:23:52.487Z,4.30
2023-04-07T16:28:53.381Z,4.63
2023-04-07T16:31:25.533Z,4.43
2023-04-07T16:33:54.531Z,6.10
2023-04-07T16:36:23.469Z,5.05
2023-04-07T16:38:54.021Z,7.93
2023-04-07T16:41:22.875Z,6.88
2023-04-07T16:43:51.836Z,6.78
2023-04-07T16:46:26.100Z,6.70
2023-04-07T16:48:55.113Z,5.82
2023-04-07T16:51:24.795Z,8.30
2023-04-07T16:53:57.961Z,7.35
2023-04-07T16:56:26.987Z,8.52
2023-04-07T16:58:58.259Z,7.10
2023-04-07T17:01:30.025Z,6.55
2023-04-07T17:04:01.733Z,6.05
2023-04-07T17:06:32.984Z,6.60
2023-04-07T17:09:07.350Z,5.57
2023-04-07T17:11:36.210Z,6.00
2023-04-07T17:14:04.851Z,6.40
2023-04-07T17:16:36.329Z,6.53
2023-04-07T17:19:05.103Z,5.78
2023-04-07T17:21:33.926Z,6.75
2023-04-07T17:24:02.705Z,7.25
2023-04-07T17:26:33.894Z,8.70
2023-04-07T17:29:04.921Z,7.70
2023-04-07T17:31:35.888Z,7.35
2023-04-07T17:36:39.041Z,30.40
2023-04-07T17:39:07.924Z,13.80
2023-04-07T17:41:38.580Z,6.68
2023-04-07T17:44:07.488Z,6.18
2023-04-07T17:46:36.275Z,8.38
2023-04-07T17:49:05.413Z,7.78
2023-04-07T17:51:34.130Z,8.27
2023-04-07T17:54:02.883Z,8.15
2023-04-07T17:56:31.629Z,9.32
2023-04-07T17:59:02.588Z,9.85
2023-04-07T18:01:31.636Z,9.10
2023-04-07T18:04:00.622Z,10.55
2023-04-07T18:06:29.928Z,10.48
2023-04-07T18:09:00.750Z,12.20
2023-04-07T18:11:31.359Z,11.00
2023-04-07T18:14:03.654Z,12.30
2023-04-07T18:16:35.584Z,11.50
2023-04-07T18:19:04.518Z,12.38
2023-04-07T18:21:35.111Z,12.70
2023-04-07T18:24:03.887Z,11.77
2023-04-07T18:26:33.793Z,12.35
2023-04-07T18:29:04.087Z,10.85
2023-04-07T18:31:33.914Z,9.93
2023-04-07T18:34:02.753Z,10.95
2023-04-07T18:36:31.680Z,12.50
2023-04-07T18:39:00.551Z,11.57
2023-04-07T18:41:29.476Z,11.07
2023-04-07T18:43:58.386Z,11.95
2023-04-07T18:46:28.814Z,12.38
2023-04-07T18:48:57.745Z,11.00
2023-04-07T18:51:29.364Z,10.25
2023-04-07T18:53:58.542Z,13.30
2023-04-07T18:56:28.477Z,12.15
2023-04-07T18:58:59.510Z,12.40
2023-04-07T19:01:29.866Z,12.60
2023-04-07T19:04:01.834Z,21.98
2023-04-07T19:06:32.014Z,20.70
2023-04-07T19:09:01.016Z,14.95
2023-04-07T19:11:29.823Z,14.57
2023-04-07T19:13:58.720Z,16.45
2023-04-07T19:16:27.635Z,14.73
2023-04-07T19:18:57.849Z,15.00
2023-04-07T19:21:29.039Z,16.25
2023-04-07T19:23:59.892Z,13.90
2023-04-07T19:26:29.490Z,14.77
2023-04-07T19:28:58.337Z,15.52
2023-04-07T19:31:27.241Z,16.92
2023-04-07T19:34:00.151Z,15.00
2023-04-07T19:36:29.031Z,15.10
2023-04-07T19:38:58.001Z,14.18
2023-04-07T19:41:26.821Z,16.42
2023-04-07T19:43:55.576Z,13.65
2023-04-07T19:46:24.655Z,15.68
2023-04-07T19:48:56.368Z,13.20
2023-04-07T19:51:27.667Z,15.15
2023-04-07T19:53:56.488Z,16.25
2023-04-07T19:56:25.479Z,16.48
2023-04-07T19:58:54.321Z,17.23
2023-04-07T20:01:26.083Z,18.00
2023-04-07T20:03:55.083Z,19.05
2023-04-07T20:06:26.711Z,18.90
2023-04-07T20:08:56.974Z,18.42
2023-04-07T20:11:26.065Z,19.40
2023-04-07T20:13:54.748Z,19.17
2023-04-07T20:16:23.584Z,17.88
2023-04-07T20:18:52.581Z,19.20
2023-04-07T20:21:21.804Z,20.00
2023-04-07T20:23:50.572Z,20.20
2023-04-07T20:26:22.141Z,19.55
2023-04-07T20:28:51.282Z,20.15
2023-04-07T20:31:20.391Z,19.95
2023-04-07T20:33:49.314Z,21.40
2023-04-07T20:36:18.749Z,20.80
2023-04-07T20:38:48.724Z,21.67
2023-04-07T20:41:23.967Z,20.27
2023-04-07T20:43:55.851Z,21.45
2023-04-07T20:46:25.075Z,21.35
2023-04-07T20:48:57.616Z,21.70
2023-04-07T20:51:26.619Z,21.52
2023-04-07T20:53:55.420Z,21.45
2023-04-07T20:56:25.754Z,22.00
2023-04-07T20:58:54.510Z,23.60
2023-04-07T21:01:23.444Z,22.52
2023-04-07T21:03:52.880Z,26.02
2023-04-07T21:06:22.000Z,23.52
2023-04-07T21:08:50.859Z,23.23
2023-04-07T21:11:19.786Z,23.55
2023-04-07T21:13:50.498Z,24.55
2023-04-07T21:16:19.473Z,42.88
2023-04-07T21:18:49.142Z,65.55
2023-04-07T21:21:18.078Z,31.60
2023-04-07T21:23:47.313Z,24.27
2023-04-07T21:26:16.859Z,27.95
2023-04-07T21:28:45.795Z,26.17
2023-04-07T21:31:23.648Z,23.60
2023-04-07T21:33:53.628Z,27.38
2023-04-07T21:36:24.977Z,24.50
2023-04-07T21:38:54.439Z,24.83
2023-04-07T21:41:23.723Z,25.45
2023-04-07T21:43:53.055Z,25.27
2023-04-07T21:46:23.608Z,26.00
2023-04-07T21:48:52.842Z,25.20
2023-04-07T21:51:22.749Z,25.85
2023-04-07T21:53:52.408Z,24.88
2023-04-07T21:56:22.058Z,24.15
2023-04-07T21:58:51.209Z,24.42
2023-04-07T22:01:20.245Z,24.92
2023-04-07T22:03:53.175Z,24.27
2023-04-07T22:06:22.377Z,25.35
2023-04-07T22:09:00.511Z,24.85
2023-04-07T22:11:30.611Z,24.95
2023-04-07T22:13:59.812Z,25.02
2023-04-07T22:16:29.140Z,25.25
2023-04-07T22:19:00.386Z,24.70
2023-04-07T22:21:29.879Z,23.77
2023-04-07T22:23:59.070Z,24.77
2023-04-07T22:26:28.511Z,24.50
2023-04-07T22:28:57.653Z,25.92
2023-04-07T22:31:27.007Z,25.10
2023-04-07T22:33:56.779Z,29.85
2023-04-07T22:36:27.767Z,26.35
2023-04-07T22:38:57.689Z,26.02
2023-04-07T22:41:27.129Z,27.75
2023-04-07T22:43:56.253Z,25.80
2023-04-07T22:46:25.578Z,26.58
2023-04-07T22:48:54.620Z,28.20
2023-04-07T22:51:24.192Z,28.13
2023-04-07T22:53:55.031Z,28.25
2023-04-07T22:56:27.414Z,27.25
2023-04-07T22:59:05.195Z,28.98
2023-04-07T23:01:34.856Z,29.17
2023-04-07T23:04:06.485Z,28.80
2023-04-07T23:06:35.904Z,29.67
2023-04-07T23:09:06.488Z,30.98
2023-04-07T23:11:36.745Z,30.70
2023-04-07T23:14:06.416Z,28.05
2023-04-07T23:16:36.096Z,29.55
2023-04-07T23:19:05.599Z,30.17
2023-04-07T23:21:34.741Z,27.80
2023-04-07T23:24:05.492Z,30.63
2023-04-07T23:26:34.793Z,30.10
2023-04-07T23:29:04.085Z,30.30
2023-04-07T23:31:33.277Z,31.52
2023-04-07T23:34:02.594Z,30.92
2023-04-07T23:36:31.788Z,31.55
2023-04-07T23:39:02.239Z,29.70
2023-04-07T23:41:33.367Z,29.92
2023-04-07T23:44:03.900Z,31.13
2023-04-07T23:46:33.113Z,29.02
2023-04-07T23:49:03.009Z,29.45
2023-04-07T23:51:32.101Z,29.58
2023-04-07T23:54:01.275Z,31.08
2023-04-07T23:56:30.923Z,29.23
2023-04-07T23:59:01.462Z,28.90
